Time;durP1;ratioP1;P1;durP2;ratioP2;P2;SDS_P1;SDS_P2;PMS_P1;PMS_P2;Temp;Humidity;BMP_temperature;BMP_pressure;BME280_temperature;BME280_humidity;BME280_pressure;Samples;Min_cycle;Max_cycle;Signal;HPM_P1;HPM_P2
2022/12/12 00:00:00;;;;;;;28.88;13.02;;;0.20;99.90;;;;;;5083897;28;20083;-65
2022/12/12 00:02:25;;;;;;;36.28;13.38;;;0.20;99.90;;;;;;5082673;28;20447;-65
2022/12/12 00:04:54;;;;;;;28.48;11.73;;;0.20;99.90;;;;;;5100416;28;20471;-65
2022/12/12 00:07:20;;;;;;;31.75;13.45;;;0.20;99.90;;;;;;5092983;28;20376;-64
2022/12/12 00:09:46;;;;;;;30.42;13.48;;;0.20;99.90;;;;;;5101062;28;20039;-64
2022/12/12 00:12:11;;;;;;;32.72;13.82;;;0.20;99.90;;;;;;5105225;28;20047;-65
2022/12/12 00:14:37;;;;;;;33.17;12.68;;;0.20;99.90;;;;;;5101533;28;20043;-65
2022/12/12 00:17:02;;;;;;;28.33;12.35;;;0.20;99.90;;;;;;5109085;28;20035;-66
2022/12/12 00:19:28;;;;;;;28.92;12.20;;;0.10;99.90;;;;;;5083711;28;20043;-65
2022/12/12 00:21:53;;;;;;;35.05;13.88;;;0.20;99.90;;;;;;5081677;28;23002;-65
2022/12/12 00:24:19;;;;;;;30.05;12.25;;;0.20;99.90;;;;;;5079104;28;20074;-65
2022/12/12 00:26:45;;;;;;;37.70;12.73;;;0.20;99.90;;;;;;5088307;28;20113;-64
2022/12/12 00:29:10;;;;;;;30.98;12.77;;;0.10;99.90;;;;;;5086673;28;20093;-64
2022/12/12 00:31:36;;;;;;;32.75;12.35;;;0.10;99.90;;;;;;5099987;28;20114;-64
2022/12/12 00:34:02;;;;;;;31.25;11.80;;;0.10;99.90;;;;;;5092127;28;20047;-65
2022/12/12 00:36:29;;;;;;;31.42;12.10;;;0.20;99.90;;;;;;5082998;28;20124;-66
2022/12/12 00:38:55;;;;;;;31.88;13.43;;;0.10;99.90;;;;;;5108423;28;20043;-65
2022/12/12 00:41:22;;;;;;;31.48;12.93;;;0.10;99.90;;;;;;5111423;28;20035;-64
2022/12/12 00:43:47;;;;;;;31.83;12.48;;;0.10;99.90;;;;;;5107696;28;20035;-64
2022/12/12 00:46:19;;;;;;;30.60;11.70;;;0.10;99.90;;;;;;5091266;28;20031;-65
2022/12/12 00:48:45;;;;;;;32.63;12.20;;;0.10;99.90;;;;;;5111676;28;20032;-64
2022/12/12 00:51:15;;;;;;;34.60;13.25;;;0.10;99.90;;;;;;5109597;28;20031;-66
2022/12/12 00:53:41;;;;;;;;;;;0.10;99.90;;;;;;5080456;28;20087;-65
2022/12/12 00:56:06;;;;;;;31.45;12.10;;;0.10;99.90;;;;;;5091269;28;20370;-64
2022/12/12 00:58:32;;;;;;;29.33;12.85;;;0.10;99.90;;;;;;5101494;28;20039;-66
2022/12/12 01:01:05;;;;;;;30.20;12.27;;;0.10;99.90;;;;;;5081021;28;20529;-64
2022/12/12 01:03:35;;;;;;;33.65;13.35;;;0.10;99.90;;;;;;5082538;28;20044;-64
2022/12/12 01:06:02;;;;;;;30.30;12.98;;;0.10;99.90;;;;;;5096085;28;20403;-64
2022/12/12 01:08:28;;;;;;;31.48;12.65;;;0.10;99.90;;;;;;5098469;28;20039;-65
2022/12/12 01:10:54;;;;;;;35.28;13.85;;;0.10;99.90;;;;;;5084939;28;20681;-65
2022/12/12 01:13:19;;;;;;;38.30;14.88;;;0.10;99.90;;;;;;5102925;28;20051;-66
2022/12/12 01:15:45;;;;;;;31.25;13.13;;;0.10;99.90;;;;;;5102033;28;20074;-65
2022/12/12 01:18:11;;;;;;;32.95;13.55;;;0.10;99.90;;;;;;5086020;28;20484;-64
2022/12/12 01:20:36;;;;;;;34.72;13.38;;;0.10;99.90;;;;;;5081711;28;20040;-64
2022/12/12 01:23:02;;;;;;;36.55;13.38;;;0.10;99.90;;;;;;5082962;28;20529;-65
2022/12/12 01:25:27;;;;;;;33.67;13.63;;;0.10;99.90;;;;;;5105339;28;20035;-64
2022/12/12 01:27:53;;;;;;;33.88;13.23;;;0.10;99.90;;;;;;5085405;28;20454;-64
2022/12/12 01:30:21;;;;;;;33.58;12.43;;;0.10;99.90;;;;;;5103703;28;20063;-65
2022/12/12 01:32:47;;;;;;;33.35;12.32;;;0.10;99.90;;;;;;5056920;28;20156;-64
2022/12/12 01:35:13;;;;;;;33.67;12.63;;;0.10;99.90;;;;;;5107765;28;20078;-65
2022/12/12 01:37:40;;;;;;;33.70;12.40;;;0.10;99.90;;;;;;5089143;28;20122;-64
2022/12/12 01:40:08;;;;;;;32.55;13.35;;;0.10;99.90;;;;;;5100313;28;20043;-66
2022/12/12 01:42:34;;;;;;;29.33;12.07;;;0.10;99.90;;;;;;5076527;28;20507;-64
2022/12/12 01:45:00;;;;;;;31.35;12.38;;;0.10;99.90;;;;;;5102318;28;20112;-65
2022/12/12 01:47:26;;;;;;;33.45;13.73;;;0.10;99.90;;;;;;5089276;28;20031;-63
2022/12/12 01:50:03;;;;;;;30.23;12.38;;;0.00;99.90;;;;;;5090297;28;20035;-64
2022/12/12 01:52:40;;;;;;;30.27;12.55;;;0.10;99.90;;;;;;5101546;28;22868;-65
2022/12/12 01:55:09;;;;;;;33.60;12.48;;;0.00;99.90;;;;;;5092814;28;20058;-66
2022/12/12 01:57:42;;;;;;;31.53;13.73;;;0.10;99.90;;;;;;5101702;28;20035;-64
2022/12/12 02:00:09;;;;;;;34.88;13.15;;;0.00;99.90;;;;;;5100695;28;23002;-65
2022/12/12 02:02:36;;;;;;;31.83;12.73;;;0.10;99.90;;;;;;5084759;28;20054;-64
2022/12/12 02:05:10;;;;;;;35.78;13.77;;;0.10;99.90;;;;;;5103142;28;20036;-63
2022/12/12 02:07:35;;;;;;;33.08;13.68;;;0.00;99.90;;;;;;5101521;28;20044;-63
2022/12/12 02:10:01;;;;;;;31.75;12.95;;;0.10;99.90;;;;;;5080870;28;20054;-66
2022/12/12 02:12:26;;;;;;;29.30;12.48;;;0.00;99.90;;;;;;5097405;28;20032;-65
2022/12/12 02:14:53;;;;;;;31.55;12.75;;;0.00;99.90;;;;;;5101553;28;20060;-64
2022/12/12 02:17:33;;;;;;;32.35;13.23;;;0.00;99.90;;;;;;5102408;28;20036;-65
2022/12/12 02:20:17;;;;;;;31.85;12.00;;;0.00;99.90;;;;;;5088897;28;20067;-65
2022/12/12 02:23:07;;;;;;;33.28;12.88;;;0.00;99.90;;;;;;5081670;28;20073;-65
2022/12/12 02:26:04;;;;;;;33.30;13.68;;;0.00;99.90;;;;;;5102297;28;20036;-64
2022/12/12 02:28:45;;;;;;;32.95;13.95;;;0.00;99.90;;;;;;5101298;28;20130;-65
2022/12/12 02:31:33;;;;;;;31.80;12.70;;;0.00;99.90;;;;;;5103491;28;20058;-64
2022/12/12 02:34:01;;;;;;;36.65;13.32;;;0.00;99.90;;;;;;5101423;28;20036;-64
2022/12/12 02:36:40;;;;;;;32.47;12.43;;;0.10;99.90;;;;;;5084573;28;20490;-63
2022/12/12 02:39:25;;;;;;;31.75;12.57;;;0.10;99.90;;;;;;5099156;28;20387;-63
2022/12/12 02:41:59;;;;;;;33.50;13.80;;;0.10;99.90;;;;;;5098889;28;20043;-64
2022/12/12 02:44:55;;;;;;;31.95;13.38;;;0.10;99.90;;;;;;5103488;28;20046;-65
2022/12/12 02:47:27;;;;;;;36.92;12.95;;;0.00;99.90;;;;;;5101724;28;20426;-64
2022/12/12 02:49:58;;;;;;;30.38;12.45;;;0.00;99.90;;;;;;5099396;28;20050;-64
2022/12/12 02:52:24;;;;;;;37.13;13.07;;;0.00;99.90;;;;;;5086796;28;20044;-64
2022/12/12 02:54:50;;;;;;;26.92;11.90;;;0.00;99.90;;;;;;5109301;28;20405;-63
2022/12/12 02:57:22;;;;;;;29.90;12.50;;;0.00;99.90;;;;;;5084758;28;20040;-66
2022/12/12 03:00:07;;;;;;;27.27;11.50;;;0.00;99.90;;;;;;5080018;28;20411;-64
2022/12/12 03:02:50;;;;;;;26.35;10.43;;;0.00;99.90;;;;;;5107567;28;20474;-64
2022/12/12 03:09:02;;;;;;;31.48;12.07;;;0.00;99.90;;;;;;5094746;28;20040;-65
2022/12/12 03:11:37;;;;;;;27.20;10.93;;;0.00;99.90;;;;;;5077173;28;20093;-66
2022/12/12 03:14:05;;;;;;;31.77;12.05;;;0.00;99.90;;;;;;5080486;28;20820;-63
2022/12/12 03:16:38;;;;;;;30.27;12.52;;;0.00;99.90;;;;;;5082292;28;20461;-65
2022/12/12 03:19:15;;;;;;;28.48;12.13;;;0.00;99.90;;;;;;5099697;28;20043;-64
2022/12/12 03:22:03;;;;;;;31.52;13.50;;;0.00;99.90;;;;;;5100319;28;20674;-64
2022/12/12 03:24:38;;;;;;;31.23;12.80;;;0.00;99.90;;;;;;5082317;28;20118;-64
2022/12/12 03:27:11;;;;;;;31.15;12.05;;;0.00;99.90;;;;;;5103347;28;20063;-65
2022/12/12 03:29:45;;;;;;;28.67;12.63;;;0.00;99.90;;;;;;5099328;28;20092;-64
2022/12/12 03:32:16;;;;;;;34.05;13.20;;;0.00;99.90;;;;;;5099904;28;20040;-66
2022/12/12 03:34:46;;;;;;;27.40;11.40;;;0.00;99.90;;;;;;5099390;28;20134;-66
2022/12/12 03:37:14;;;;;;;;;;;0.00;99.90;;;;;;5080468;28;20035;-64
2022/12/12 03:39:54;;;;;;;25.65;10.13;;;0.00;99.90;;;;;;5081166;28;19959;-66
2022/12/12 03:42:36;;;;;;;29.13;11.88;;;0.00;99.90;;;;;;5082362;28;20542;-63
2022/12/12 03:45:17;;;;;;;31.75;11.90;;;0.00;99.90;;;;;;5098132;28;20444;-64
2022/12/12 03:47:57;;;;;;;31.85;12.80;;;0.00;99.90;;;;;;5078665;28;20134;-64
2022/12/12 03:50:32;;;;;;;27.52;12.43;;;0.00;99.90;;;;;;5100506;28;21072;-65
2022/12/12 03:53:09;;;;;;;30.98;12.35;;;0.00;99.90;;;;;;5082155;28;20031;-64
2022/12/12 03:55:42;;;;;;;30.45;11.35;;;0.00;99.90;;;;;;5064477;28;20073;-64
2022/12/12 03:58:25;;;;;;;29.58;12.18;;;0.10;99.90;;;;;;5102452;28;20142;-65
2022/12/12 04:00:55;;;;;;;29.85;12.25;;;0.00;99.90;;;;;;5100171;28;20040;-65
2022/12/12 04:03:25;;;;;;;27.42;11.57;;;0.00;99.90;;;;;;5085750;28;20036;-65
2022/12/12 04:08:39;;;;;;;30.25;10.65;;;0.00;99.90;;;;;;5101400;28;19926;-65
2022/12/12 04:14:10;;;;;;;27.80;11.40;;;0.00;99.90;;;;;;5095468;28;20055;-64
2022/12/12 04:16:41;;;;;;;31.15;12.18;;;0.00;99.90;;;;;;5106148;28;20471;-63
2022/12/12 04:23:14;;;;;;;32.17;12.63;;;0.00;99.90;;;;;;5088472;28;20622;-64
2022/12/12 04:25:25;;;;;;;33.33;13.00;;;0.00;99.90;;;;;;5082788;28;20051;-64
2022/12/12 04:27:55;;;;;;;26.27;11.85;;;0.00;99.90;;;;;;5082673;28;20047;-64
2022/12/12 04:30:21;;;;;;;29.50;11.88;;;0.00;99.90;;;;;;5105953;28;20050;-64
2022/12/12 04:33:08;;;;;;;30.02;12.02;;;0.00;99.90;;;;;;5102237;28;20032;-64
2022/12/12 04:35:46;;;;;;;29.75;12.02;;;0.00;99.90;;;;;;5075514;28;20434;-65
2022/12/12 04:38:17;;;;;;;28.98;11.18;;;0.00;99.90;;;;;;5106865;28;20483;-64
2022/12/12 04:40:50;;;;;;;28.00;12.20;;;0.00;99.90;;;;;;5086398;28;20407;-64
2022/12/12 04:43:21;;;;;;;30.13;11.35;;;0.00;99.90;;;;;;5107914;28;20039;-64
2022/12/12 04:45:52;;;;;;;30.65;13.02;;;0.00;99.90;;;;;;5111867;28;20042;-64
2022/12/12 04:48:23;;;;;;;29.17;12.02;;;0.00;99.90;;;;;;5093066;28;20564;-64
2022/12/12 04:50:51;;;;;;;29.77;12.85;;;0.00;99.90;;;;;;5089863;28;20043;-63
2022/12/12 04:53:25;;;;;;;30.33;11.05;;;0.00;99.90;;;;;;5104665;28;20119;-64
2022/12/12 04:55:58;;;;;;;29.15;12.73;;;0.00;99.90;;;;;;5089294;28;20043;-63
2022/12/12 04:58:25;;;;;;;28.80;12.88;;;0.00;99.90;;;;;;5103242;28;20047;-63
2022/12/12 05:00:57;;;;;;;24.48;11.48;;;0.00;99.90;;;;;;5110994;28;20443;-64
2022/12/12 05:03:34;;;;;;;23.83;11.30;;;0.00;99.90;;;;;;5105880;28;20036;-63
2022/12/12 05:06:06;;;;;;;31.70;12.82;;;0.00;99.90;;;;;;5110874;28;20074;-63
2022/12/12 05:08:37;;;;;;;29.70;12.55;;;0.00;99.90;;;;;;5108676;28;20047;-65
2022/12/12 05:11:04;;;;;;;29.63;12.50;;;0.10;99.90;;;;;;5093298;28;20452;-64
2022/12/12 05:13:34;;;;;;;27.05;11.77;;;0.00;99.90;;;;;;5092940;28;20069;-65
2022/12/12 05:16:02;;;;;;;30.67;12.85;;;0.00;99.90;;;;;;5111091;28;21664;-64
2022/12/12 05:18:29;;;;;;;30.50;12.45;;;0.00;99.90;;;;;;5112910;28;20047;-63
2022/12/12 05:20:55;;;;;;;34.25;11.48;;;0.00;99.90;;;;;;5088410;28;20039;-64
2022/12/12 05:23:20;;;;;;;28.10;11.93;;;0.00;99.90;;;;;;5101063;28;20080;-63
2022/12/12 05:25:46;;;;;;;28.52;10.85;;;0.00;99.90;;;;;;5106716;28;20032;-63
2022/12/12 05:28:11;;;;;;;33.20;11.80;;;0.00;99.90;;;;;;5106748;28;20032;-64
2022/12/12 05:30:37;;;;;;;29.75;11.27;;;0.10;99.90;;;;;;5090837;28;20554;-64
2022/12/12 05:33:02;;;;;;;24.27;10.80;;;0.00;99.90;;;;;;5111591;28;20118;-64
2022/12/12 05:35:28;;;;;;;26.33;10.85;;;0.00;99.90;;;;;;5109651;28;20059;-64
2022/12/12 05:37:54;;;;;;;24.88;10.63;;;0.00;99.90;;;;;;5098775;28;20063;-63
2022/12/12 05:40:21;;;;;;;28.83;11.15;;;0.00;99.90;;;;;;5103408;28;20032;-63
2022/12/12 05:42:47;;;;;;;27.77;10.50;;;0.00;99.90;;;;;;5087971;28;20074;-64
2022/12/12 05:45:13;;;;;;;27.65;10.70;;;0.10;99.90;;;;;;5082798;28;20039;-65
2022/12/12 05:47:39;;;;;;;24.55;11.23;;;0.00;99.90;;;;;;5103549;28;20027;-63
2022/12/12 05:50:05;;;;;;;25.75;10.45;;;0.00;99.90;;;;;;5103114;28;20490;-64
2022/12/12 05:52:31;;;;;;;27.48;12.05;;;0.00;99.90;;;;;;5101264;28;22275;-65
2022/12/12 05:54:56;;;;;;;30.02;11.23;;;0.00;99.90;;;;;;5095310;28;20040;-64
2022/12/12 05:57:22;;;;;;;24.90;11.00;;;0.00;99.90;;;;;;5102779;28;20035;-65
2022/12/12 05:59:47;;;;;;;27.58;11.25;;;0.10;99.90;;;;;;5101471;28;20072;-63
2022/12/12 06:02:13;;;;;;;23.25;11.05;;;0.00;99.90;;;;;;5084593;28;20027;-64
2022/12/12 06:04:39;;;;;;;27.10;10.90;;;0.00;99.90;;;;;;5103632;28;20035;-65
2022/12/12 06:07:05;;;;;;;24.83;10.38;;;0.00;99.90;;;;;;5101931;28;20043;-64
2022/12/12 06:09:31;;;;;;;24.65;10.77;;;0.00;99.90;;;;;;5102338;28;20032;-63
2022/12/12 06:11:56;;;;;;;26.75;11.32;;;0.00;99.90;;;;;;5079566;28;20394;-65
2022/12/12 06:14:22;;;;;;;25.67;11.13;;;0.00;99.90;;;;;;5100144;28;20051;-65
2022/12/12 06:16:48;;;;;;;27.80;11.70;;;0.00;99.90;;;;;;5103696;28;20433;-63
2022/12/12 06:19:13;;;;;;;26.42;10.85;;;0.00;99.90;;;;;;5103090;28;20047;-64
2022/12/12 06:21:39;;;;;;;25.85;10.73;;;0.00;99.90;;;;;;5101851;28;20063;-63
2022/12/12 06:24:05;;;;;;;26.13;10.73;;;0.00;99.90;;;;;;5104296;28;20088;-65
2022/12/12 06:26:31;;;;;;;26.05;10.65;;;-0.10;99.90;;;;;;5101697;28;20102;-64
2022/12/12 06:28:57;;;;;;;26.45;10.50;;;0.00;99.90;;;;;;5086519;28;20036;-63
2022/12/12 06:31:23;;;;;;;28.75;11.07;;;0.00;99.90;;;;;;5109262;28;20036;-65
2022/12/12 06:33:48;;;;;;;23.75;10.23;;;0.00;99.90;;;;;;5105282;28;20471;-64
2022/12/12 06:36:22;;;;;;;24.23;10.75;;;0.00;99.90;;;;;;5105584;28;20074;-63
2022/12/12 06:38:49;;;;;;;28.40;11.10;;;0.00;99.90;;;;;;5091541;28;20063;-65
2022/12/12 06:41:15;;;;;;;23.73;10.52;;;-0.10;99.90;;;;;;5110284;28;20097;-64
2022/12/12 06:43:41;;;;;;;24.80;10.68;;;0.00;99.90;;;;;;5089717;28;20039;-65
2022/12/12 06:46:11;;;;;;;25.25;10.88;;;0.00;99.90;;;;;;5104626;28;20028;-64
2022/12/12 06:48:36;;;;;;;26.23;10.05;;;0.00;99.90;;;;;;5076171;28;20086;-64
2022/12/12 06:51:07;;;;;;;24.08;10.00;;;0.00;99.90;;;;;;5083712;28;20652;-63
2022/12/12 06:53:33;;;;;;;26.48;10.80;;;-0.10;99.90;;;;;;5104526;28;20394;-63
2022/12/12 06:55:58;;;;;;;24.08;9.98;;;-0.10;99.90;;;;;;5082244;28;20040;-63
2022/12/12 06:58:24;;;;;;;26.10;11.10;;;-0.10;99.90;;;;;;5112260;28;20048;-65
2022/12/12 07:00:53;;;;;;;26.27;10.80;;;-0.10;99.90;;;;;;5102804;28;20035;-64
2022/12/12 07:03:18;;;;;;;26.05;10.70;;;-0.10;99.90;;;;;;5082895;28;20047;-63
2022/12/12 07:05:47;;;;;;;26.23;11.25;;;-0.10;99.90;;;;;;5074745;28;20067;-63
2022/12/12 07:08:14;;;;;;;26.42;11.38;;;-0.10;99.90;;;;;;5104057;28;20043;-63
2022/12/12 07:10:40;;;;;;;26.27;10.75;;;0.00;99.90;;;;;;5101192;28;20039;-65
2022/12/12 07:13:06;;;;;;;26.88;10.68;;;-0.10;99.90;;;;;;5085409;28;20139;-64
2022/12/12 07:15:31;;;;;;;27.52;12.13;;;-0.10;99.90;;;;;;5106995;28;20127;-63
2022/12/12 07:17:57;;;;;;;28.38;11.13;;;0.00;99.90;;;;;;5108060;28;20458;-62
2022/12/12 07:20:22;;;;;;;31.45;11.75;;;-0.10;99.90;;;;;;5094205;28;20036;-63
2022/12/12 07:22:48;;;;;;;31.30;11.10;;;-0.10;99.90;;;;;;5065171;28;20047;-64
2022/12/12 07:25:14;;;;;;;25.48;10.85;;;-0.10;99.90;;;;;;5098420;28;20050;-63
2022/12/12 07:27:40;;;;;;;24.25;9.73;;;-0.10;99.90;;;;;;5082390;28;20032;-64
2022/12/12 07:30:06;;;;;;;23.83;10.32;;;-0.10;99.90;;;;;;5093471;28;20082;-64
2022/12/12 07:32:31;;;;;;;25.75;10.55;;;-0.10;99.90;;;;;;5073723;28;20068;-63
2022/12/12 07:34:57;;;;;;;22.98;9.82;;;-0.10;99.90;;;;;;5109804;28;20533;-63
2022/12/12 07:37:22;;;;;;;25.92;11.68;;;-0.10;99.90;;;;;;5103230;28;20035;-65
2022/12/12 07:39:48;;;;;;;25.42;11.10;;;-0.10;99.90;;;;;;5105894;28;20035;-63
2022/12/12 07:42:13;;;;;;;24.63;10.00;;;-0.10;99.90;;;;;;5098489;28;20119;-63
2022/12/12 07:44:39;;;;;;;22.90;9.82;;;-0.10;99.90;;;;;;5071902;28;20047;-64
2022/12/12 07:47:05;;;;;;;26.05;11.43;;;-0.10;99.90;;;;;;5106453;28;20562;-63
2022/12/12 07:49:31;;;;;;;22.05;10.07;;;-0.10;99.90;;;;;;5105612;28;20115;-63
2022/12/12 07:51:56;;;;;;;24.50;9.90;;;-0.10;99.90;;;;;;5090610;28;20150;-64
2022/12/12 07:54:22;;;;;;;25.75;10.68;;;-0.10;99.90;;;;;;5110171;28;20040;-63
2022/12/12 07:56:48;;;;;;;23.33;9.90;;;-0.10;99.90;;;;;;5110652;28;20099;-65
2022/12/12 07:59:13;;;;;;;29.30;10.38;;;-0.10;99.90;;;;;;5108108;28;20036;-63
2022/12/12 08:01:39;;;;;;;24.98;11.73;;;-0.10;99.90;;;;;;5089064;28;20047;-64
2022/12/12 08:04:04;;;;;;;21.63;9.55;;;-0.10;99.90;;;;;;5109323;28;20494;-65
2022/12/12 08:06:30;;;;;;;24.00;10.20;;;-0.10;99.90;;;;;;5080557;28;20086;-63
2022/12/12 08:08:56;;;;;;;21.90;9.80;;;-0.10;99.90;;;;;;5099678;28;20558;-64
2022/12/12 08:11:23;;;;;;;25.65;10.02;;;-0.10;99.90;;;;;;5106554;28;20043;-62
2022/12/12 08:13:50;;;;;;;22.75;10.30;;;0.00;99.90;;;;;;5080175;28;20427;-63
2022/12/12 08:16:23;;;;;;;26.58;11.55;;;-0.10;99.90;;;;;;5109814;28;20505;-64
2022/12/12 08:18:55;;;;;;;22.40;9.38;;;0.00;99.90;;;;;;5099875;28;20035;-63
2022/12/12 08:21:21;;;;;;;28.17;11.20;;;0.00;99.90;;;;;;5090542;28;20043;-65
2022/12/12 08:23:47;;;;;;;22.27;9.35;;;0.10;99.90;;;;;;5089439;28;20118;-63
2022/12/12 08:26:14;;;;;;;26.00;10.88;;;0.10;99.90;;;;;;5103570;28;20180;-63
2022/12/12 08:28:42;;;;;;;25.20;10.02;;;0.20;99.90;;;;;;5097154;28;20476;-65
2022/12/12 08:31:08;;;;;;;23.77;11.00;;;0.20;99.90;;;;;;5083788;28;20063;-63
2022/12/12 08:33:34;;;;;;;22.38;10.57;;;0.20;99.90;;;;;;5109208;28;20035;-63
2022/12/12 08:36:00;;;;;;;26.02;12.18;;;0.20;99.90;;;;;;5099063;28;20066;-64
2022/12/12 08:38:25;;;;;;;28.13;10.98;;;0.20;99.90;;;;;;5102695;28;20173;-64
2022/12/12 08:40:51;;;;;;;26.20;11.27;;;0.30;99.90;;;;;;5104565;28;20039;-63
2022/12/12 08:43:17;;;;;;;24.40;9.85;;;0.20;99.90;;;;;;5100983;28;20040;-64
2022/12/12 08:45:42;;;;;;;23.90;10.48;;;0.20;99.90;;;;;;5090506;28;20085;-62
2022/12/12 08:48:10;;;;;;;26.20;10.50;;;0.20;99.90;;;;;;5100664;28;20036;-63
2022/12/12 08:50:39;;;;;;;26.98;10.88;;;0.10;99.90;;;;;;5108464;28;20039;-63
2022/12/12 08:53:04;;;;;;;26.45;10.85;;;0.10;99.90;;;;;;5110423;28;20069;-63
2022/12/12 08:55:30;;;;;;;26.75;10.43;;;0.10;99.90;;;;;;5103073;28;20035;-64
2022/12/12 08:57:58;;;;;;;26.52;10.80;;;0.10;99.90;;;;;;5104934;28;20056;-64
2022/12/12 09:00:24;;;;;;;27.05;12.10;;;0.00;99.90;;;;;;5083908;28;20039;-63
2022/12/12 09:02:50;;;;;;;25.73;10.98;;;0.00;99.90;;;;;;5108486;28;20039;-64
2022/12/12 09:05:15;;;;;;;23.25;11.10;;;0.00;99.90;;;;;;5111356;28;20188;-64
2022/12/12 09:07:41;;;;;;;29.23;11.90;;;-0.10;99.90;;;;;;5088957;28;20048;-63
2022/12/12 09:10:07;;;;;;;26.92;11.35;;;-0.10;99.90;;;;;;5106521;28;20115;-64
2022/12/12 09:12:33;;;;;;;30.48;11.93;;;-0.10;99.90;;;;;;5104712;28;20035;-63
2022/12/12 09:14:59;;;;;;;30.23;13.15;;;-0.20;99.90;;;;;;5103588;28;20810;-62
2022/12/12 09:17:24;;;;;;;32.85;12.52;;;-0.20;99.90;;;;;;5070402;28;20118;-63
2022/12/12 09:19:50;;;;;;;28.35;12.20;;;-0.20;99.90;;;;;;5103431;28;20463;-63
2022/12/12 09:22:16;;;;;;;34.25;14.32;;;-0.20;99.90;;;;;;5090516;28;20040;-64
2022/12/12 09:24:42;;;;;;;32.78;13.38;;;-0.10;99.90;;;;;;5108764;28;20043;-63
2022/12/12 09:27:08;;;;;;;34.90;14.40;;;0.00;99.90;;;;;;5076353;28;20055;-64
2022/12/12 09:29:33;;;;;;;33.90;14.45;;;0.10;99.90;;;;;;5088267;28;20109;-63
2022/12/12 09:32:05;;;;;;;37.15;14.32;;;0.10;99.90;;;;;;5104248;28;20036;-63
2022/12/12 09:34:31;;;;;;;33.72;13.73;;;0.20;99.90;;;;;;5108714;28;20649;-64
2022/12/12 09:36:57;;;;;;;34.53;13.98;;;0.30;99.90;;;;;;5107144;28;20780;-63
2022/12/12 09:39:22;;;;;;;35.22;16.33;;;0.30;99.90;;;;;;5107298;28;20043;-64
2022/12/12 09:41:48;;;;;;;39.40;15.80;;;0.40;99.90;;;;;;5113634;28;20032;-63
2022/12/12 09:44:17;;;;;;;36.40;16.02;;;0.40;99.90;;;;;;5104366;28;21838;-63
2022/12/12 09:46:54;;;;;;;41.50;16.43;;;0.50;99.90;;;;;;5109050;28;20041;-64
2022/12/12 09:49:41;;;;;;;40.40;15.73;;;0.50;99.90;;;;;;5104528;28;20288;-63
2022/12/12 09:52:13;;;;;;;36.25;15.10;;;0.50;99.90;;;;;;5061790;28;20043;-65
2022/12/12 09:54:39;;;;;;;38.38;15.88;;;0.50;99.90;;;;;;5084486;28;20123;-65
2022/12/12 09:57:26;;;;;;;38.20;15.40;;;0.50;99.90;;;;;;5089997;28;20051;-64
2022/12/12 10:00:08;;;;;;;36.60;14.80;;;0.60;99.90;;;;;;5104424;28;20047;-63
2022/12/12 10:02:52;;;;;;;36.50;15.32;;;0.60;99.90;;;;;;5086987;28;20043;-62
2022/12/12 10:05:40;;;;;;;35.63;14.70;;;0.60;99.90;;;;;;5082943;28;20055;-65
2022/12/12 10:08:26;;;;;;;41.03;15.63;;;0.60;99.90;;;;;;5105889;28;20055;-63
2022/12/12 10:10:57;;;;;;;39.72;15.15;;;0.70;99.90;;;;;;5084950;28;20492;-65
2022/12/12 10:13:29;;;;;;;43.08;16.58;;;0.60;99.90;;;;;;5098425;28;20083;-64
2022/12/12 10:16:01;;;;;;;41.58;16.05;;;0.70;99.90;;;;;;5105323;28;20039;-63
2022/12/12 10:18:32;;;;;;;41.90;16.90;;;0.70;99.90;;;;;;5088545;28;20050;-65
2022/12/12 10:21:05;;;;;;;39.85;16.48;;;0.70;99.90;;;;;;5106150;28;20028;-64
2022/12/12 10:23:50;;;;;;;39.45;15.60;;;0.80;99.90;;;;;;5110417;28;20032;-64
2022/12/12 10:26:19;;;;;;;42.53;16.25;;;0.80;99.90;;;;;;5107383;28;20115;-63
2022/12/12 10:28:48;;;;;;;38.28;16.30;;;0.80;99.90;;;;;;5108218;28;20043;-64
2022/12/12 10:31:24;;;;;;;35.20;16.13;;;0.80;99.90;;;;;;5092754;28;20136;-65
2022/12/12 10:34:25;;;;;;;36.28;15.40;;;0.80;99.90;;;;;;5102189;28;20041;-63
2022/12/12 10:37:02;;;;;;;43.80;16.48;;;0.90;99.90;;;;;;5099952;28;20073;-63
2022/12/12 10:39:58;;;;;;;38.55;15.93;;;0.90;99.90;;;;;;5108090;28;20399;-63
2022/12/12 10:42:29;;;;;;;40.70;15.82;;;1.00;99.90;;;;;;5056667;28;20410;-64
2022/12/12 10:45:34;;;;;;;40.67;16.75;;;1.00;99.90;;;;;;5105868;28;20134;-63
2022/12/12 10:48:00;;;;;;;40.70;16.40;;;1.10;99.90;;;;;;5096423;28;20092;-63
2022/12/12 10:50:30;;;;;;;40.05;16.17;;;1.10;99.90;;;;;;5093071;28;20031;-65
2022/12/12 10:52:55;;;;;;;39.85;15.40;;;1.10;99.90;;;;;;5103042;28;20031;-63
2022/12/12 10:55:33;;;;;;;38.90;16.15;;;1.10;99.90;;;;;;5107199;28;20062;-64
2022/12/12 10:58:02;;;;;;;35.08;14.77;;;1.10;99.90;;;;;;5088028;28;20042;-65
2022/12/12 11:00:34;;;;;;;32.72;14.13;;;1.00;99.90;;;;;;5105566;28;20028;-65
2022/12/12 11:03:25;;;;;;;38.80;16.25;;;1.00;99.90;;;;;;5104834;28;20123;-63
2022/12/12 11:05:52;;;;;;;35.65;15.93;;;1.00;99.90;;;;;;5109259;28;20043;-64
2022/12/12 11:08:20;;;;;;;40.78;15.95;;;1.00;99.90;;;;;;5103587;28;20568;-64
2022/12/12 11:11:00;;;;;;;39.13;16.57;;;1.00;99.90;;;;;;5106617;28;20040;-65
2022/12/12 11:13:27;;;;;;;38.08;16.90;;;1.10;99.90;;;;;;5108786;28;20059;-65
2022/12/12 11:16:11;;;;;;;38.05;16.13;;;1.10;99.90;;;;;;5085599;28;20436;-64
2022/12/12 11:18:36;;;;;;;39.58;16.67;;;1.10;99.90;;;;;;5107005;28;20040;-64
2022/12/12 11:21:10;;;;;;;39.22;16.02;;;1.10;99.90;;;;;;5085502;28;20032;-63
2022/12/12 11:23:40;;;;;;;38.65;16.10;;;1.20;99.90;;;;;;5103699;28;20115;-65
2022/12/12 11:26:27;;;;;;;39.72;16.85;;;1.20;99.90;;;;;;5110072;28;20115;-65
2022/12/12 11:28:56;;;;;;;40.38;17.15;;;1.30;99.90;;;;;;5108261;28;20047;-63
2022/12/12 11:31:26;;;;;;;39.55;15.88;;;1.30;99.90;;;;;;5090408;28;20090;-65
2022/12/12 11:33:55;;;;;;;39.42;16.42;;;1.30;99.90;;;;;;5087765;28;20040;-64
2022/12/12 11:36:32;;;;;;;38.13;15.68;;;1.40;99.90;;;;;;5086891;28;20067;-65
2022/12/12 11:39:00;;;;;;;41.65;16.50;;;1.40;99.90;;;;;;5089882;28;20050;-64
2022/12/12 11:41:25;;;;;;;36.78;15.27;;;1.40;99.90;;;;;;5108847;28;20085;-63
2022/12/12 11:43:54;;;;;;;38.72;17.48;;;1.40;99.90;;;;;;5087087;28;20071;-63
2022/12/12 11:46:29;;;;;;;38.00;15.80;;;1.40;99.90;;;;;;5087184;28;20048;-63
2022/12/12 11:49:00;;;;;;;40.83;18.02;;;1.50;99.90;;;;;;5102961;28;20043;-63
2022/12/12 11:51:42;;;;;;;40.63;17.08;;;1.50;99.90;;;;;;5090422;28;20521;-66
2022/12/12 11:54:28;;;;;;;37.63;16.20;;;1.50;99.90;;;;;;5089933;28;20055;-65
2022/12/12 11:57:12;;;;;;;39.03;17.08;;;1.50;99.90;;;;;;5085115;28;20160;-65
2022/12/12 12:00:00;;;;;;;38.50;16.42;;;1.40;99.90;;;;;;5104385;28;20059;-65
2022/12/12 12:02:31;;;;;;;40.17;16.60;;;1.40;99.90;;;;;;5100791;28;20058;-64
2022/12/12 12:05:11;;;;;;;38.25;16.25;;;1.40;99.90;;;;;;5089799;28;20053;-65
2022/12/12 12:07:58;;;;;;;34.40;16.00;;;1.40;99.90;;;;;;5101225;28;20039;-64
2022/12/12 12:10:50;;;;;;;36.15;15.18;;;1.40;99.90;;;;;;5100656;28;20067;-65
2022/12/12 12:13:33;;;;;;;37.78;16.10;;;1.40;99.90;;;;;;5095218;28;20087;-65
2022/12/12 12:16:08;;;;;;;39.03;14.82;;;1.40;99.90;;;;;;5101732;28;20032;-65
2022/12/12 12:19:00;;;;;;;42.22;16.77;;;1.40;99.90;;;;;;5079028;28;20043;-63
2022/12/12 12:21:34;;;;;;;38.85;17.10;;;1.40;99.90;;;;;;5096838;28;20039;-64
2022/12/12 12:23:59;;;;;;;36.10;16.23;;;1.40;99.90;;;;;;5100235;28;20036;-64
2022/12/12 12:26:38;;;;;;;37.30;15.57;;;1.40;99.90;;;;;;5108612;28;20040;-64
2022/12/12 12:29:15;;;;;;;32.83;15.07;;;1.40;99.90;;;;;;5099585;28;20044;-65
2022/12/12 12:31:41;;;;;;;36.38;14.60;;;1.50;99.90;;;;;;5087126;28;20027;-64
2022/12/12 12:34:12;;;;;;;31.48;14.50;;;1.40;99.90;;;;;;5109028;28;20039;-64
2022/12/12 12:36:41;;;;;;;32.08;14.20;;;1.40;99.90;;;;;;5086918;28;20159;-65
2022/12/12 12:39:39;;;;;;;41.42;15.73;;;1.40;99.90;;;;;;5089559;28;20039;-64
2022/12/12 12:42:27;;;;;;;30.48;13.95;;;1.50;99.90;;;;;;5087280;28;20039;-64
2022/12/12 12:45:15;;;;;;;35.72;13.30;;;1.50;99.90;;;;;;5083612;28;20044;-64
2022/12/12 12:47:51;;;;;;;32.95;13.65;;;1.50;99.90;;;;;;5104936;28;20152;-64
2022/12/12 12:50:31;;;;;;;29.10;13.35;;;1.50;99.90;;;;;;5102023;28;20032;-64
2022/12/12 12:53:35;;;;;;;32.80;13.88;;;1.50;99.90;;;;;;5087175;28;20042;-64
2022/12/12 12:56:18;;;;;;;26.58;12.65;;;1.50;99.90;;;;;;5090095;28;20028;-65
2022/12/12 12:58:47;;;;;;;26.50;11.98;;;1.50;99.90;;;;;;5099185;28;20032;-65
2022/12/12 13:01:19;;;;;;;25.50;11.07;;;1.40;99.90;;;;;;5089093;28;20543;-64
2022/12/12 13:03:53;;;;;;;24.75;11.35;;;1.50;99.90;;;;;;5089353;28;20035;-64
2022/12/12 13:06:27;;;;;;;25.58;11.88;;;1.50;99.90;;;;;;5107956;28;20119;-64